Time;durP1;ratioP1;P1;durP2;ratioP2;P2;SDS_P1;SDS_P2;PMS_P1;PMS_P2;Temp;Humidity;BMP_temperature;BMP_pressure;BME280_temperature;BME280_humidity;BME280_pressure;Samples;Min_cycle;Max_cycle;Signal;HPM_P1;HPM_P2
2021/11/07 00:03:43;;;;;;;17.13;12.73;;;;;;;7.57;74.79;101086.00;4972099;28;20030;-81
2021/11/07 00:06:16;;;;;;;18.38;12.27;;;;;;;7.56;74.92;101072.00;4976454;28;20047;-81
2021/11/07 00:08:50;;;;;;;13.95;10.82;;;;;;;7.56;74.26;101069.38;4976687;28;20562;-81
2021/11/07 00:11:26;;;;;;;16.70;12.23;;;;;;;7.63;74.72;101076.50;4966912;28;20034;-81
2021/11/07 00:13:52;;;;;;;16.73;11.40;;;;;;;7.63;74.34;101051.97;4975722;28;20070;-81
2021/11/07 00:16:24;;;;;;;16.17;11.40;;;;;;;7.65;74.46;101052.84;4975235;28;20654;-81
2021/11/07 00:21:29;;;;;;;15.30;11.25;;;;;;;7.72;74.20;101049.47;4977781;28;20105;-81
2021/11/07 00:26:30;;;;;;;16.73;10.27;;;;;;;7.79;74.20;101046.06;4975449;28;20035;-81
2021/11/07 00:29:14;;;;;;;17.75;12.13;;;;;;;7.81;73.08;101038.22;4966346;28;20041;-81
2021/11/07 00:31:52;;;;;;;17.02;11.38;;;;;;;7.83;73.43;101037.38;4975085;28;20031;-81
2021/11/07 00:34:50;;;;;;;13.77;10.35;;;;;;;7.85;73.11;101026.84;4982147;28;20070;-81
2021/11/07 00:37:15;;;;;;;14.80;11.18;;;;;;;7.76;73.12;101017.13;4979340;28;20042;-81
2021/11/07 00:47:44;;;;;;;14.45;10.68;;;;;;;7.92;72.05;101018.19;4979137;28;20066;-81
2021/11/07 00:50:06;;;;;;;14.95;10.25;;;;;;;7.92;72.26;101009.44;4982851;28;20047;-81
2021/11/07 00:52:52;;;;;;;15.13;10.50;;;;;;;7.97;71.66;101000.75;4979296;28;20030;-81
2021/11/07 00:55:26;;;;;;;14.18;10.20;;;;;;;7.97;71.86;101010.38;4970317;28;20512;-82
2021/11/07 00:57:56;;;;;;;13.63;10.18;;;;;;;7.92;71.64;101009.44;4966997;28;20043;-82
2021/11/07 01:00:38;;;;;;;13.65;9.52;;;;;;;8.02;71.69;101011.31;4979502;28;20042;-82
2021/11/07 01:03:10;;;;;;;14.82;10.05;;;;;;;7.97;70.75;100990.22;4979191;28;20035;-82
2021/11/07 01:05:35;;;;;;;;;;;;;;;7.98;71.29;100985.84;4987090;28;20046;-82
2021/11/07 01:08:01;;;;;;;15.65;9.90;;;;;;;7.95;71.23;100991.94;4979194;28;20487;-82
2021/11/07 01:10:27;;;;;;;12.50;8.77;;;;;;;8.01;70.93;100983.25;4978304;28;20027;-82
2021/11/07 01:12:53;;;;;;;14.70;9.88;;;;;;;7.86;71.20;100984.84;4979240;28;20035;-82
2021/11/07 01:15:19;;;;;;;13.18;9.88;;;;;;;7.94;71.17;100984.94;4978596;28;20049;-82
2021/11/07 01:17:44;;;;;;;13.85;9.05;;;;;;;7.89;70.48;100974.38;4979206;28;20497;-82
2021/11/07 01:20:12;;;;;;;12.38;8.48;;;;;;;7.93;71.09;100966.50;4979018;28;20034;-81
2021/11/07 01:25:22;;;;;;;13.77;10.13;;;;;;;7.94;71.38;100937.63;4978841;28;20096;-82
2021/11/07 01:27:47;;;;;;;13.98;10.07;;;;;;;7.96;71.06;100935.00;4978926;28;20125;-82
2021/11/07 01:30:19;;;;;;;13.85;10.20;;;;;;;7.85;70.96;100927.00;4989230;28;20348;-82
2021/11/07 01:32:50;;;;;;;14.00;9.80;;;;;;;7.82;71.04;100917.34;4973860;28;20038;-82
2021/11/07 01:35:20;;;;;;;15.02;10.65;;;;;;;7.79;70.96;100912.03;4988212;28;20053;-82
2021/11/07 01:40:27;;;;;;;12.45;8.82;;;;;;;7.74;70.85;100881.34;4981199;28;20041;-82
2021/11/07 01:42:57;;;;;;;13.48;9.13;;;;;;;7.80;70.34;100874.38;4978464;28;20094;-81
2021/11/07 01:45:29;;;;;;;12.32;9.02;;;;;;;7.73;71.06;100872.56;4977818;28;20174;-81
2021/11/07 01:48:07;;;;;;;14.27;10.35;;;;;;;7.80;70.11;100871.75;4977738;28;20090;-81
2021/11/07 01:50:38;;;;;;;15.15;9.27;;;;;;;7.79;70.35;100871.75;4978520;28;20042;-81
2021/11/07 01:53:51;;;;;;;13.23;9.80;;;;;;;7.72;69.83;100870.78;4969388;28;20074;-82
2021/11/07 01:55:52;;;;;;;13.75;9.40;;;;;;;7.79;70.17;100864.75;4973649;28;20097;-82
2021/11/07 01:58:17;;;;;;;12.55;9.23;;;;;;;7.80;69.69;100870.88;4969520;28;20045;-81
2021/11/07 02:00:45;;;;;;;14.95;10.73;;;;;;;7.65;70.19;100861.97;4953146;28;20026;-81
2021/11/07 02:03:11;;;;;;;17.02;10.25;;;;;;;7.68;70.40;100861.13;4985446;28;20472;-82
2021/11/07 02:05:37;;;;;;;13.45;9.05;;;;;;;7.76;70.13;100854.22;4978347;28;20043;-82
2021/11/07 02:08:06;;;;;;;13.32;9.13;;;;;;;7.74;70.53;100850.69;4969079;28;20038;-81
2021/11/07 02:10:31;;;;;;;13.85;9.45;;;;;;;7.67;70.40;100852.34;4978169;28;20089;-81
2021/11/07 02:12:56;;;;;;;12.80;9.23;;;;;;;7.66;70.30;100847.09;4968607;28;20449;-81
2021/11/07 02:15:22;;;;;;;12.52;8.95;;;;;;;7.67;70.41;100843.59;4984986;28;20429;-81
2021/11/07 02:17:49;;;;;;;16.35;9.80;;;;;;;7.66;70.17;100833.97;4952429;28;20051;-81
2021/11/07 02:20:31;;;;;;;14.70;11.02;;;;;;;7.57;70.52;100828.59;4978060;28;20105;-81
2021/11/07 02:22:59;;;;;;;13.90;10.10;;;;;;;7.43;71.10;100823.19;4978056;28;20077;-81
2021/11/07 02:25:25;;;;;;;14.88;8.77;;;;;;;7.42;71.37;100822.31;4968048;28;20039;-82
2021/11/07 02:27:51;;;;;;;15.05;10.63;;;;;;;7.36;71.83;100817.00;4968572;28;20099;-81
2021/11/07 02:30:17;;;;;;;14.68;10.18;;;;;;;7.38;71.32;100819.63;4984061;28;20545;-81
2021/11/07 02:32:48;;;;;;;14.50;10.90;;;;;;;7.34;71.56;100802.09;4964572;28;20093;-82
2021/11/07 02:35:15;;;;;;;15.05;10.57;;;;;;;7.34;71.95;100796.84;4969370;28;20039;-82
2021/11/07 02:37:41;;;;;;;14.15;10.30;;;;;;;7.28;71.99;100787.13;4984615;28;20056;-81
2021/11/07 02:40:08;;;;;;;13.48;10.25;;;;;;;7.26;71.87;100778.38;4976959;28;20379;-82
2021/11/07 02:42:35;;;;;;;13.90;9.50;;;;;;;7.14;72.06;100783.47;4971192;28;20498;-82
2021/11/07 02:45:01;;;;;;;13.63;10.00;;;;;;;7.24;71.90;100780.97;4969227;28;20049;-82
2021/11/07 02:47:27;;;;;;;14.10;10.43;;;;;;;7.18;71.84;100780.03;4978439;28;20097;-83
2021/11/07 02:49:52;;;;;;;15.60;10.00;;;;;;;7.19;71.57;100779.16;4977993;28;20043;-83
2021/11/07 02:52:17;;;;;;;14.98;10.52;;;;;;;7.17;72.04;100773.00;4968727;28;20074;-82
2021/11/07 02:54:43;;;;;;;14.23;10.05;;;;;;;7.19;71.35;100777.41;4977992;28;20039;-82
2021/11/07 02:57:12;;;;;;;14.30;10.80;;;;;;;7.15;71.58;100769.47;4976804;28;20108;-81
2021/11/07 02:59:40;;;;;;;15.68;11.40;;;;;;;7.23;71.19;100767.81;4973659;28;20046;-82
2021/11/07 03:02:08;;;;;;;16.75;10.85;;;;;;;7.41;71.05;100756.66;4979766;28;20125;-81
2021/11/07 03:04:34;;;;;;;14.68;10.70;;;;;;;7.42;70.09;100753.16;4977117;28;20129;-81
2021/11/07 03:06:59;;;;;;;14.13;10.35;;;;;;;7.55;70.57;100746.31;4976522;28;20124;-82
2021/11/07 03:09:29;;;;;;;14.25;10.20;;;;;;;7.63;69.60;100747.25;4976228;28;20138;-81
2021/11/07 03:11:55;;;;;;;14.25;9.88;;;;;;;7.71;69.26;100742.94;4976848;28;20062;-81
2021/11/07 03:14:24;;;;;;;14.23;10.55;;;;;;;7.72;69.07;100736.81;4967053;28;20043;-81
2021/11/07 03:16:50;;;;;;;13.50;9.70;;;;;;;7.75;69.44;100725.44;4976602;28;20046;-82
2021/11/07 03:19:19;;;;;;;16.17;10.65;;;;;;;7.67;68.69;100713.13;4976551;28;20468;-82
2021/11/07 03:21:44;;;;;;;15.10;10.13;;;;;;;7.70;68.89;100701.75;4983780;28;20034;-82
2021/11/07 03:24:12;;;;;;;14.15;10.23;;;;;;;7.67;68.51;100701.72;4976473;28;20049;-82
2021/11/07 03:26:38;;;;;;;13.30;9.48;;;;;;;7.68;68.91;100699.13;4967923;28;20045;-82
2021/11/07 03:29:06;;;;;;;14.60;9.80;;;;;;;7.76;68.62;100708.84;4976706;28;20489;-82
2021/11/07 03:31:42;;;;;;;14.23;9.85;;;;;;;7.74;68.58;100692.16;4967771;28;20030;-82
2021/11/07 03:34:17;;;;;;;14.10;10.15;;;;;;;7.75;67.70;100699.16;4983992;28;20050;-82
2021/11/07 03:36:45;;;;;;;14.95;9.23;;;;;;;7.79;67.93;100701.84;4974421;28;20129;-82
2021/11/07 03:39:12;;;;;;;12.85;10.10;;;;;;;7.80;67.79;100697.47;4967810;28;20035;-82
2021/11/07 03:41:39;;;;;;;13.35;9.10;;;;;;;7.83;67.83;100697.47;4984201;28;20035;-82
2021/11/07 03:44:05;;;;;;;15.35;9.23;;;;;;;7.84;67.60;100692.25;4967544;28;20069;-82
2021/11/07 03:46:31;;;;;;;11.57;8.43;;;;;;;7.85;67.88;100686.13;4966969;28;20035;-82
2021/11/07 03:48:57;;;;;;;13.45;9.82;;;;;;;7.76;67.65;100667.66;4983505;28;20051;-82
2021/11/07 03:51:24;;;;;;;10.75;8.05;;;;;;;7.78;67.54;100663.31;4967006;28;20043;-82
2021/11/07 03:53:50;;;;;;;11.98;9.13;;;;;;;7.72;67.35;100642.22;4976361;28;20406;-82
2021/11/07 03:56:15;;;;;;;12.90;9.57;;;;;;;7.78;67.83;100655.44;4976240;28;20054;-82
2021/11/07 03:58:42;;;;;;;15.25;9.60;;;;;;;7.81;68.03;100652.81;4983593;28;20508;-82
2021/11/07 04:01:07;;;;;;;12.43;9.27;;;;;;;7.86;66.89;100639.72;4967795;28;20046;-82
2021/11/07 04:03:33;;;;;;;12.68;8.02;;;;;;;7.74;66.75;100619.47;4967071;28;20414;-82
2021/11/07 04:05:58;;;;;;;13.07;8.73;;;;;;;7.75;66.73;100615.97;4976292;28;20416;-82
2021/11/07 04:08:23;;;;;;;12.00;8.10;;;;;;;7.73;66.78;100636.13;4973371;28;20081;-81
2021/11/07 04:10:49;;;;;;;12.38;8.15;;;;;;;7.72;66.30;100642.22;4982749;28;20127;-82
2021/11/07 04:13:15;;;;;;;10.68;8.13;;;;;;;7.72;66.50;100636.09;4976299;28;20050;-82
2021/11/07 04:15:41;;;;;;;13.02;7.80;;;;;;;7.74;66.52;100637.00;4975967;28;20100;-81
2021/11/07 04:18:06;;;;;;;12.23;7.93;;;;;;;7.79;66.55;100633.53;4976346;28;20494;-81
2021/11/07 04:20:32;;;;;;;11.57;7.50;;;;;;;7.86;66.19;100616.94;4975756;28;20085;-81
2021/11/07 04:22:57;;;;;;;12.63;8.50;;;;;;;7.87;66.54;100602.06;4969962;28;20030;-81
2021/11/07 04:25:23;;;;;;;12.05;7.95;;;;;;;7.98;65.60;100596.84;4975654;28;20038;-81
2021/11/07 04:27:48;;;;;;;13.55;8.32;;;;;;;8.00;65.51;100595.13;4976244;28;20149;-81
2021/11/07 04:30:14;;;;;;;10.75;7.68;;;;;;;8.16;65.91;100594.31;4975898;28;20046;-81
2021/11/07 04:32:39;;;;;;;11.30;7.75;;;;;;;8.14;65.21;100582.91;4975363;28;20109;-81
2021/11/07 04:35:07;;;;;;;12.43;7.57;;;;;;;8.19;64.87;100575.91;4981623;28;20209;-81
2021/11/07 04:37:34;;;;;;;11.45;7.50;;;;;;;8.22;65.00;100581.19;4966325;28;20066;-81
2021/11/07 04:39:59;;;;;;;13.82;7.80;;;;;;;8.18;64.45;100575.94;4979327;28;20106;-82
2021/11/07 04:42:25;;;;;;;10.27;7.55;;;;;;;8.11;64.73;100567.13;4976035;28;20769;-82
2021/11/07 04:44:51;;;;;;;12.02;7.97;;;;;;;8.05;65.05;100577.63;4977199;28;20139;-82
2021/11/07 04:47:16;;;;;;;11.05;7.50;;;;;;;7.99;65.09;100577.56;4968294;28;20161;-82
2021/11/07 04:49:42;;;;;;;10.13;6.45;;;;;;;7.97;65.07;100568.81;4978878;28;20081;-82
2021/11/07 04:52:08;;;;;;;11.20;5.95;;;;;;;8.04;65.04;100562.72;4975148;28;20109;-82
2021/11/07 04:54:33;;;;;;;9.38;6.07;;;;;;;8.08;64.58;100556.59;4975832;28;20125;-82
2021/11/07 04:56:58;;;;;;;10.90;6.57;;;;;;;8.10;64.48;100544.34;4976310;28;20045;-82
2021/11/07 04:59:24;;;;;;;9.88;6.40;;;;;;;8.15;64.88;100542.63;4976757;28;20058;-83
2021/11/07 05:01:50;;;;;;;10.60;5.55;;;;;;;8.21;64.46;100540.00;4976752;28;20038;-83
2021/11/07 05:04:15;;;;;;;9.55;5.93;;;;;;;8.29;64.73;100529.50;4983438;28;20110;-83
2021/11/07 05:06:41;;;;;;;9.98;6.07;;;;;;;8.32;64.31;100522.50;4967634;28;20039;-82
2021/11/07 05:09:06;;;;;;;8.32;5.78;;;;;;;8.39;64.22;100526.06;4966664;28;20133;-83
2021/11/07 05:11:32;;;;;;;8.93;5.25;;;;;;;8.37;63.83;100519.03;4977294;28;20071;-83
2021/11/07 05:13:57;;;;;;;8.77;5.55;;;;;;;8.26;64.18;100514.59;4977334;28;20034;-83
2021/11/07 05:16:23;;;;;;;8.55;5.75;;;;;;;8.29;64.11;100516.38;4976016;28;20031;-81
2021/11/07 05:18:49;;;;;;;9.40;5.25;;;;;;;8.24;64.08;100529.50;4950712;28;20045;-81
2021/11/07 05:21:14;;;;;;;7.82;5.65;;;;;;;8.17;64.71;100514.56;4977574;28;20050;-81
2021/11/07 05:23:39;;;;;;;8.23;5.55;;;;;;;8.17;64.11;100509.31;4974204;28;20035;-82
2021/11/07 05:26:05;;;;;;;8.25;5.32;;;;;;;8.10;64.24;100503.16;4974239;28;20038;-81
2021/11/07 05:28:33;;;;;;;7.82;4.95;;;;;;;8.14;63.90;100501.41;4965431;28;20031;-82
2021/11/07 05:30:59;;;;;;;9.55;5.45;;;;;;;8.25;63.77;100490.94;4977111;28;20038;-82
2021/11/07 05:33:25;;;;;;;11.05;5.55;;;;;;;8.31;63.77;100491.84;4980734;28;20039;-82
2021/11/07 05:35:50;;;;;;;8.05;5.45;;;;;;;8.32;63.79;100490.94;4976886;28;20093;-82
2021/11/07 05:38:16;;;;;;;7.68;4.97;;;;;;;8.31;63.44;100481.31;4975453;28;20031;-82
2021/11/07 05:40:41;;;;;;;6.82;4.47;;;;;;;8.38;63.51;100482.19;4977001;28;20039;-82
2021/11/07 05:43:07;;;;;;;8.85;5.75;;;;;;;8.38;63.64;100468.16;4964786;28;20038;-82
2021/11/07 05:45:32;;;;;;;7.88;4.97;;;;;;;8.50;63.26;100481.38;4977373;28;20041;-82
2021/11/07 05:47:58;;;;;;;7.00;4.85;;;;;;;8.55;63.20;100484.91;4958807;28;20060;-82
2021/11/07 05:50:24;;;;;;;7.43;5.18;;;;;;;8.57;62.52;100485.78;4976926;28;20114;-82
2021/11/07 05:52:50;;;;;;;7.95;5.45;;;;;;;8.52;63.07;100477.00;4961592;28;20125;-81
2021/11/07 05:55:16;;;;;;;8.60;5.93;;;;;;;8.55;63.07;100479.63;4963979;28;20053;-81
2021/11/07 05:57:42;;;;;;;8.70;4.88;;;;;;;8.61;62.81;100474.38;4976726;28;20026;-82
2021/11/07 06:00:10;;;;;;;8.88;5.40;;;;;;;8.66;62.86;100463.84;4977889;28;20035;-82
2021/11/07 06:02:39;;;;;;;9.20;5.68;;;;;;;8.60;62.82;100467.38;4965572;28;20042;-81
2021/11/07 06:05:06;;;;;;;8.25;5.28;;;;;;;8.67;62.60;100462.97;4976226;28;20401;-81
2021/11/07 06:07:31;;;;;;;8.07;5.10;;;;;;;8.61;63.28;100465.59;4976339;28;20042;-82
2021/11/07 06:09:57;;;;;;;8.77;5.43;;;;;;;8.57;63.21;100488.41;4975488;28;20097;-83
2021/11/07 06:12:23;;;;;;;8.98;4.88;;;;;;;8.58;62.89;100476.13;4964896;28;20053;-82
2021/11/07 06:14:48;;;;;;;10.05;5.07;;;;;;;8.59;62.79;100468.22;4982558;28;20074;-82
2021/11/07 06:17:14;;;;;;;9.25;5.45;;;;;;;8.63;62.89;100474.38;4969403;28;20046;-81
2021/11/07 06:19:39;;;;;;;7.40;4.50;;;;;;;8.63;63.31;100477.88;4968044;28;20050;-82
2021/11/07 06:22:05;;;;;;;8.70;5.53;;;;;;;8.66;63.29;100466.50;4968155;28;20401;-80
2021/11/07 06:24:31;;;;;;;7.05;4.90;;;;;;;8.68;63.72;100476.13;4977013;28;20062;-80
2021/11/07 06:26:58;;;;;;;7.65;5.03;;;;;;;8.65;63.53;100470.88;4952243;28;20057;-82
2021/11/07 06:29:25;;;;;;;8.02;4.82;;;;;;;8.67;63.73;100473.50;4976519;28;20034;-81
2021/11/07 06:31:52;;;;;;;7.57;5.10;;;;;;;8.66;63.97;100466.50;4968964;28;20088;-84
2021/11/07 06:34:19;;;;;;;8.45;5.22;;;;;;;8.69;63.84;100464.72;4983221;28;20050;-83
2021/11/07 06:36:44;;;;;;;7.20;4.53;;;;;;;8.66;63.43;100461.22;4964589;28;20062;-82
2021/11/07 06:39:10;;;;;;;7.03;4.50;;;;;;;8.71;63.77;100448.97;4974136;28;20078;-82
2021/11/07 06:41:35;;;;;;;7.55;4.93;;;;;;;8.68;64.35;100457.72;4972731;28;20055;-83
2021/11/07 06:44:01;;;;;;;8.20;4.80;;;;;;;8.74;63.90;100451.59;4971627;28;20089;-81
2021/11/07 06:46:27;;;;;;;7.45;5.15;;;;;;;8.76;64.26;100444.56;4972874;28;20053;-82
2021/11/07 06:48:52;;;;;;;7.40;5.18;;;;;;;8.75;64.65;100451.59;4972824;28;20041;-82
2021/11/07 06:51:18;;;;;;;8.40;5.57;;;;;;;8.65;65.57;100446.34;4957967;28;20043;-81
2021/11/07 06:53:44;;;;;;;8.63;5.28;;;;;;;8.73;65.23;100452.47;4944385;28;20065;-81
2021/11/07 06:56:09;;;;;;;7.75;5.78;;;;;;;8.77;64.97;100452.44;4947522;28;20035;-82
2021/11/07 06:58:35;;;;;;;9.05;5.45;;;;;;;8.75;65.42;100451.59;4976498;28;20485;-82
2021/11/07 07:01:01;;;;;;;8.43;5.78;;;;;;;8.72;65.84;100456.88;4973392;28;20081;-81
2021/11/07 07:03:26;;;;;;;10.25;6.28;;;;;;;8.66;66.18;100448.94;4979968;28;20489;-82
2021/11/07 07:05:52;;;;;;;7.72;5.50;;;;;;;8.79;65.89;100449.81;4975720;28;20046;-81
2021/11/07 07:08:24;;;;;;;8.73;6.18;;;;;;;8.74;66.13;100449.81;4953351;28;20038;-82
2021/11/07 07:10:55;;;;;;;7.78;5.82;;;;;;;8.75;66.12;100448.97;4971502;28;20041;-84
2021/11/07 07:13:46;;;;;;;10.35;5.85;;;;;;;8.74;66.70;100454.22;4995483;28;20108;-82
2021/11/07 07:18:59;;;;;;;8.70;5.72;;;;;;;8.83;66.74;100446.34;4967990;28;20094;-81
2021/11/07 07:24:40;;;;;;;8.13;5.85;;;;;;;8.84;66.22;100444.56;4977794;28;20093;-82
2021/11/07 07:29:53;;;;;;;11.57;6.32;;;;;;;8.77;66.88;100417.38;4973513;28;20097;-82
2021/11/07 07:32:44;;;;;;;11.90;6.95;;;;;;;8.82;66.79;100425.25;4964243;28;20039;-82
2021/11/07 07:35:11;;;;;;;10.40;6.85;;;;;;;8.88;66.95;100414.72;4974666;28;20046;-82
2021/11/07 07:37:37;;;;;;;12.02;7.05;;;;;;;8.87;66.96;100412.97;4975722;28;20101;-81
2021/11/07 07:40:05;;;;;;;10.57;7.25;;;;;;;8.86;67.11;100421.78;4975648;28;20035;-81
2021/11/07 07:42:32;;;;;;;10.32;6.75;;;;;;;8.83;66.97;100417.38;4965986;28;20387;-82
2021/11/07 07:44:59;;;;;;;12.38;7.10;;;;;;;8.87;67.00;100423.50;4977416;28;20042;-83
2021/11/07 07:47:25;;;;;;;10.77;7.35;;;;;;;8.79;67.32;100431.41;4975566;28;20062;-84
2021/11/07 07:49:51;;;;;;;9.85;6.50;;;;;;;8.75;67.91;100427.91;4968560;28;20066;-83
2021/11/07 07:52:27;;;;;;;9.77;6.07;;;;;;;8.85;68.36;100435.78;4974692;28;20490;-81
2021/11/07 07:54:53;;;;;;;8.40;6.28;;;;;;;8.83;67.93;100448.06;4975190;28;20051;-83
2021/11/07 07:57:20;;;;;;;9.65;7.03;;;;;;;8.67;69.56;100431.41;4974867;28;20042;-83
2021/11/07 07:59:46;;;;;;;9.48;6.43;;;;;;;8.62;69.56;100434.06;4974586;28;20460;-81
2021/11/07 08:02:11;;;;;;;9.95;7.10;;;;;;;8.59;70.04;100439.28;4975188;28;20043;-82
2021/11/07 08:04:37;;;;;;;9.85;6.53;;;;;;;8.63;70.22;100446.31;4965852;28;20042;-83
2021/11/07 08:07:03;;;;;;;12.35;7.85;;;;;;;8.63;70.11;100445.44;4983835;28;20031;-82
2021/11/07 08:09:28;;;;;;;8.80;6.22;;;;;;;8.68;69.61;100438.44;4966773;28;20038;-82
2021/11/07 08:11:54;;;;;;;11.02;7.32;;;;;;;8.73;69.48;100434.91;4976984;28;20410;-83
2021/11/07 08:14:19;;;;;;;9.57;6.38;;;;;;;8.80;69.06;100437.53;4960515;28;20051;-84
2021/11/07 08:16:44;;;;;;;9.70;7.22;;;;;;;8.73;69.08;100429.66;4954630;28;20035;-83
2021/11/07 08:19:10;;;;;;;10.05;6.47;;;;;;;8.78;68.68;100430.53;4975020;28;20516;-81
2021/11/07 08:21:40;;;;;;;10.40;6.88;;;;;;;8.78;69.11;100425.28;4983216;28;20045;-82
2021/11/07 08:24:07;;;;;;;10.70;7.13;;;;;;;8.73;68.66;100421.78;4975323;28;20058;-83
2021/11/07 08:26:34;;;;;;;9.20;7.10;;;;;;;8.73;69.33;100426.16;4975589;28;20034;-81
2021/11/07 08:29:01;;;;;;;9.63;7.10;;;;;;;8.84;68.66;100431.41;4973139;28;20490;-83
2021/11/07 08:31:28;;;;;;;11.88;7.20;;;;;;;8.88;68.51;100435.78;4975527;28;20138;-81
2021/11/07 08:33:55;;;;;;;11.35;7.07;;;;;;;8.90;68.79;100428.75;4957238;28;20038;-83
2021/11/07 08:36:25;;;;;;;9.38;7.03;;;;;;;8.87;68.71;100437.53;4959892;28;20039;-84
2021/11/07 08:39:16;;;;;;;9.90;6.97;;;;;;;8.87;69.26;100434.03;4979690;28;20030;-84
2021/11/07 08:41:46;;;;;;;9.55;6.63;;;;;;;8.82;68.73;100443.69;4967224;28;20070;-84
2021/11/07 09:00:26;;;;;;;11.13;7.07;;;;;;;8.58;69.49;100445.44;4977024;28;20050;-82
2021/11/07 09:06:12;;;;;;;10.82;7.80;;;;;;;8.51;69.72;100435.78;4984268;28;20113;-84
2021/11/07 09:08:24;;;;;;;10.50;6.53;;;;;;;8.59;70.00;100435.78;4974254;28;20525;-84
2021/11/07 09:10:51;;;;;;;9.30;6.85;;;;;;;8.58;70.27;100436.69;4955011;28;20533;-83
2021/11/07 09:13:17;;;;;;;10.25;6.80;;;;;;;8.60;69.73;100434.94;4969011;28;20043;-82
2021/11/07 09:15:49;;;;;;;9.40;6.68;;;;;;;8.60;69.53;100429.66;4967812;28;20084;-81
2021/11/07 09:18:16;;;;;;;8.90;6.18;;;;;;;8.59;70.17;100423.50;4953338;28;20038;-82
2021/11/07 09:21:07;;;;;;;9.93;6.60;;;;;;;8.53;70.40;100431.41;4969362;28;20035;-83
2021/11/07 09:29:09;;;;;;;7.82;5.35;;;;;;;8.58;70.44;100416.50;4964624;28;20038;-82
2021/11/07 09:35:13;;;;;;;8.80;6.43;;;;;;;8.54;70.97;100420.00;4968229;28;20047;-83
2021/11/07 09:40:24;;;;;;;7.57;6.05;;;;;;;8.59;71.18;100418.25;4978689;28;20039;-82
2021/11/07 09:42:57;;;;;;;8.23;5.82;;;;;;;8.58;70.58;100416.50;4972896;28;20054;-81
2021/11/07 09:45:31;;;;;;;8.27;5.65;;;;;;;8.71;70.39;100410.34;4963856;28;20039;-81
2021/11/07 09:48:01;;;;;;;7.18;5.05;;;;;;;8.76;70.36;100408.59;4974478;28;20109;-83
2021/11/07 09:50:27;;;;;;;7.80;5.35;;;;;;;8.80;69.95;100411.22;4977817;28;20042;-83
2021/11/07 09:52:55;;;;;;;9.07;5.43;;;;;;;8.77;70.56;100412.97;4964912;28;20042;-82
2021/11/07 09:55:24;;;;;;;7.05;4.95;;;;;;;8.65;70.19;100407.75;4968857;28;20046;-84
2021/11/07 09:57:52;;;;;;;9.00;5.30;;;;;;;8.55;71.16;100412.13;4968749;28;20136;-83
2021/11/07 10:00:28;;;;;;;7.15;5.50;;;;;;;8.58;71.39;100415.63;4977271;28;20051;-81
2021/11/07 10:02:54;;;;;;;8.55;5.78;;;;;;;8.61;71.12;100403.34;4962309;28;20046;-82
2021/11/07 10:05:20;;;;;;;8.35;5.47;;;;;;;8.54;71.97;100409.47;4967333;28;20042;-81
2021/11/07 10:07:58;;;;;;;7.57;5.30;;;;;;;8.43;72.86;100401.59;4983693;28;20093;-82
2021/11/07 10:10:29;;;;;;;7.03;4.40;;;;;;;8.52;73.04;100395.47;4977165;28;20513;-83
2021/11/07 10:12:57;;;;;;;8.60;4.65;;;;;;;8.50;72.38;100413.00;4977670;28;20034;-82
2021/11/07 10:15:40;;;;;;;7.00;4.70;;;;;;;8.62;72.51;100391.06;4976551;28;20047;-82
2021/11/07 10:18:13;;;;;;;;;;;;;;;8.68;71.98;100391.94;4976905;28;20038;-81
2021/11/07 10:20:47;;;;;;;7.18;4.43;;;;;;;8.84;71.49;100386.66;4959963;28;20568;-81
2021/11/07 10:23:28;;;;;;;6.53;4.70;;;;;;;8.88;71.45;100396.31;4973446;28;20114;-81
2021/11/07 10:28:33;;;;;;;5.82;3.83;;;;;;;9.03;70.69;100379.63;4957787;28;20122;-82
2021/11/07 10:31:16;;;;;;;6.30;3.58;;;;;;;9.03;69.88;100385.75;4971925;28;20659;-82
2021/11/07 10:36:50;;;;;;;5.47;3.30;;;;;;;9.11;69.07;100380.47;4973452;28;20097;-82
2021/11/07 10:52:50;;;;;;;4.50;2.55;;;;;;;9.10;68.90;100369.06;4974511;28;20038;-83
2021/11/07 10:55:25;;;;;;;3.95;2.50;;;;;;;9.13;68.39;100376.94;4964334;28;20038;-83
2021/11/07 10:58:03;;;;;;;4.10;2.58;;;;;;;9.21;68.55;100372.53;4977087;28;20034;-79
2021/11/07 11:00:35;;;;;;;3.42;2.00;;;;;;;9.14;68.00;100370.81;4982287;28;20445;-78
2021/11/07 11:03:03;;;;;;;5.25;2.95;;;;;;;9.09;68.58;100369.97;4980497;28;20041;-78
2021/11/07 11:05:37;;;;;;;4.20;2.33;;;;;;;9.12;69.34;100366.44;4983845;28;20035;-78
2021/11/07 11:08:11;;;;;;;4.00;2.20;;;;;;;9.12;69.11;100369.94;4982952;28;20397;-78
2021/11/07 11:10:50;;;;;;;4.97;1.98;;;;;;;9.18;68.73;100361.16;4982128;28;20054;-78
2021/11/07 11:18:53;;;;;;;;;;;;;;;9.09;69.76;100362.06;4972124;28;20201;-77
2021/11/07 11:23:55;;;;;;;4.03;1.98;;;;;;;9.15;69.75;100346.22;4971767;28;20045;-78
2021/11/07 11:31:56;;;;;;;3.25;1.65;;;;;;;9.19;69.49;100347.97;4981729;28;20058;-78
2021/11/07 11:34:28;;;;;;;2.63;1.55;;;;;;;9.19;70.06;100342.69;4979377;28;20113;-78
2021/11/07 11:39:34;;;;;;;2.60;1.40;;;;;;;9.24;69.80;100336.53;4980950;28;20055;-79
2021/11/07 11:42:07;;;;;;;2.45;1.30;;;;;;;9.20;69.28;100333.94;4979348;28;20026;-78
2021/11/07 11:44:34;;;;;;;2.10;1.17;;;;;;;9.31;69.41;100330.38;4988102;28;20031;-78
2021/11/07 11:48:32;;;;;;;3.47;1.38;;;;;;;9.28;68.91;100327.78;4982767;28;20405;-77
2021/11/07 11:50:35;;;;;;;2.83;1.27;;;;;;;9.27;69.60;100331.25;4969614;28;20506;-78
2021/11/07 11:55:49;;;;;;;2.53;1.17;;;;;;;9.29;69.93;100309.31;4979501;28;20050;-78
2021/11/07 11:58:23;;;;;;;4.07;1.33;;;;;;;9.36;69.45;100311.03;4955770;28;20477;-78
2021/11/07 12:01:08;;;;;;;2.90;1.35;;;;;;;9.44;69.09;100305.72;4985619;28;20108;-77
2021/11/07 12:09:25;;;;;;;2.00;0.85;;;;;;;9.42;69.53;100304.84;4980158;28;20803;-78
2021/11/07 12:12:01;;;;;;;1.98;0.60;;;;;;;9.44;69.25;100301.34;4982273;28;20058;-78
2021/11/07 12:14:47;;;;;;;1.52;0.90;;;;;;;9.56;69.88;100289.88;4980241;28;20563;-78
2021/11/07 12:17:12;;;;;;;1.73;0.70;;;;;;;9.53;69.25;100292.50;4978621;28;20535;-78
2021/11/07 12:19:44;;;;;;;5.15;0.90;;;;;;;9.59;69.23;100284.56;4980805;28;20038;-78
2021/11/07 12:22:17;;;;;;;1.38;0.70;;;;;;;9.63;69.64;100282.78;4981290;28;20042;-78
2021/11/07 12:24:49;;;;;;;1.60;0.68;;;;;;;9.63;69.17;100283.66;4976060;28;20049;-77
2021/11/07 12:27:40;;;;;;;1.20;0.75;;;;;;;9.64;69.00;100285.44;4967147;28;20038;-78
2021/11/07 12:30:15;;;;;;;2.17;1.00;;;;;;;9.68;69.63;100251.16;4980858;28;20503;-77
2021/11/07 12:32:47;;;;;;;1.60;0.63;;;;;;;9.74;69.51;100251.97;4984727;28;20034;-78
2021/11/07 12:35:34;;;;;;;1.90;0.90;;;;;;;9.66;69.75;100249.38;4977868;28;20549;-78
2021/11/07 12:41:04;;;;;;;2.47;1.00;;;;;;;9.79;69.77;100249.28;4992026;28;20066;-78
2021/11/07 12:43:30;;;;;;;2.72;0.70;;;;;;;9.81;69.65;100247.53;4990953;28;20043;-79
2021/11/07 12:46:02;;;;;;;2.30;1.05;;;;;;;9.92;69.58;100250.94;4978370;28;20078;-78
2021/11/07 12:48:47;;;;;;;1.17;0.60;;;;;;;9.81;69.15;100237.00;4979325;28;20504;-79
2021/11/07 12:51:26;;;;;;;3.35;0.93;;;;;;;9.92;69.51;100237.78;4985417;28;20442;-78
2021/11/07 12:54:06;;;;;;;1.60;0.70;;;;;;;9.87;69.27;100236.94;4986916;28;20026;-78
2021/11/07 12:56:53;;;;;;;3.83;0.80;;;;;;;9.94;69.39;100235.13;4986601;28;20046;-79
2021/11/07 12:59:27;;;;;;;2.80;0.70;;;;;;;9.85;69.46;100238.69;4987641;28;20034;-78
2021/11/07 13:02:02;;;;;;;3.45;0.80;;;;;;;9.84;69.48;100231.69;4986742;28;20037;-78
2021/11/07 13:04:30;;;;;;;2.85;1.00;;;;;;;9.93;69.38;100242.19;4985278;28;20038;-78
2021/11/07 13:06:58;;;;;;;3.30;1.10;;;;;;;9.99;69.24;100234.19;4982106;28;20035;-79
2021/11/07 13:09:32;;;;;;;1.95;0.80;;;;;;;9.86;69.21;100237.81;4982900;28;20065;-78
2021/11/07 13:12:08;;;;;;;2.08;0.85;;;;;;;9.86;69.89;100224.66;4987078;28;20038;-78
2021/11/07 13:23:45;;;;;;;3.13;0.90;;;;;;;9.69;70.43;100223.91;4989061;28;20050;-79
2021/11/07 13:26:43;;;;;;;2.53;1.10;;;;;;;9.77;70.33;100224.72;4987148;28;20068;-80
2021/11/07 13:32:35;;;;;;;2.13;0.70;;;;;;;9.67;70.85;100231.81;4983831;28;20044;-78
2021/11/07 13:34:35;;;;;;;3.17;1.30;;;;;;;9.72;71.24;100226.50;4975682;28;20048;-78
2021/11/07 13:37:03;;;;;;;2.58;0.90;;;;;;;9.76;71.05;100233.50;4979160;28;20042;-78
2021/11/07 13:39:32;;;;;;;2.15;0.90;;;;;;;9.73;71.14;100233.53;4978524;28;20493;-78